createdAt,value
2022-08-29T00:00:38.349Z,94.42
2022-08-29T00:01:43.942Z,94.37
2022-08-29T00:02:50.801Z,94.67
2022-08-29T00:03:55.236Z,94.51
2022-08-29T00:04:58.448Z,94.56
2022-08-29T00:06:01.279Z,94.80
2022-08-29T00:07:03.825Z,94.50
2022-08-29T00:08:06.204Z,94.27
2022-08-29T00:09:11.327Z,94.34
2022-08-29T00:10:15.601Z,94.25
2022-08-29T00:11:18.103Z,94.31
2022-08-29T00:12:20.412Z,94.53
2022-08-29T00:13:22.643Z,94.61
2022-08-29T00:14:25.089Z,94.56
2022-08-29T00:15:27.811Z,94.93
2022-08-29T00:16:31.301Z,94.76
2022-08-29T00:17:34.066Z,94.68
2022-08-29T00:18:37.038Z,94.70
2022-08-29T00:19:39.411Z,94.77
2022-08-29T00:20:43.353Z,94.74
2022-08-29T00:21:45.751Z,94.74
2022-08-29T00:22:48.194Z,94.60
2022-08-29T00:23:50.629Z,94.12
2022-08-29T00:24:52.996Z,94.02
2022-08-29T00:25:55.314Z,94.33
2022-08-29T00:26:57.964Z,96.32
2022-08-29T00:28:01.089Z,96.81
2022-08-29T00:29:03.522Z,96.37
2022-08-29T00:30:08.573Z,95.68
2022-08-29T00:31:11.616Z,95.26
2022-08-29T00:32:13.881Z,94.47
2022-08-29T00:33:16.383Z,94.16
2022-08-29T00:34:18.762Z,94.35
2022-08-29T00:35:27.249Z,94.47
2022-08-29T00:36:30.610Z,95.61
2022-08-29T00:37:33.818Z,95.55
2022-08-29T00:38:36.671Z,94.92
2022-08-29T00:39:39.875Z,94.75
2022-08-29T00:41:56.088Z,94.40
2022-08-29T00:42:58.755Z,94.68
2022-08-29T00:44:01.573Z,94.51
2022-08-29T00:45:06.863Z,94.73
2022-08-29T00:46:13.329Z,95.31
2022-08-29T00:47:19.277Z,95.03
2022-08-29T00:48:21.682Z,94.82
2022-08-29T00:49:27.433Z,94.61
2022-08-29T00:50:36.108Z,94.40
2022-08-29T00:51:39.700Z,94.69
2022-08-29T00:52:45.407Z,94.81
2022-08-29T00:53:51.146Z,95.05
2022-08-29T00:54:55.956Z,95.62
2022-08-29T00:55:59.456Z,95.91
2022-08-29T00:57:02.277Z,96.11
2022-08-29T00:58:10.771Z,95.98
2022-08-29T00:59:18.585Z,95.92
2022-08-29T01:00:24.879Z,95.82
2022-08-29T01:01:27.232Z,95.52
2022-08-29T01:02:29.894Z,95.36
2022-08-29T01:03:35.312Z,95.22
2022-08-29T01:04:38.120Z,95.12
2022-08-29T01:05:41.238Z,95.38
2022-08-29T01:06:44.116Z,95.51
2022-08-29T01:07:47.232Z,95.69
2022-08-29T01:08:49.734Z,96.31
2022-08-29T01:09:54.254Z,97.36
2022-08-29T01:10:56.950Z,98.07
2022-08-29T01:11:59.260Z,98.01
2022-08-29T01:13:04.049Z,97.19
2022-08-29T01:14:06.953Z,96.48
2022-08-29T01:15:10.566Z,96.27
2022-08-29T01:16:15.480Z,96.67
2022-08-29T01:17:30.636Z,96.32
2022-08-29T01:18:34.649Z,95.17
2022-08-29T01:19:57.477Z,94.87
2022-08-29T01:21:18.349Z,94.00
2022-08-29T01:22:41.419Z,92.89
2022-08-29T01:24:02.508Z,91.96
2022-08-29T01:25:17.229Z,91.16
2022-08-29T01:26:20.865Z,90.71
2022-08-29T01:27:26.686Z,90.08
2022-08-29T01:28:32.673Z,89.76
2022-08-29T01:29:34.861Z,89.75
2022-08-29T01:30:39.625Z,89.56
2022-08-29T01:31:56.311Z,89.55
2022-08-29T01:32:50.034Z,89.35
2022-08-29T01:35:08.965Z,88.41
2022-08-29T01:36:18.153Z,88.22
2022-08-29T01:37:20.645Z,88.06
2022-08-29T01:38:23.061Z,87.70
2022-08-29T01:39:28.890Z,87.65
2022-08-29T01:40:34.314Z,87.55
2022-08-29T01:41:36.936Z,87.73
2022-08-29T01:42:39.739Z,87.97
2022-08-29T01:43:45.249Z,87.79
2022-08-29T01:46:04.933Z,88.29
2022-08-29T01:47:08.818Z,88.32
2022-08-29T01:48:11.036Z,88.38
2022-08-29T01:49:15.549Z,88.46
2022-08-29T01:50:18.941Z,88.59
2022-08-29T01:51:21.497Z,89.09
2022-08-29T01:52:23.846Z,90.01
2022-08-29T01:53:26.382Z,89.73
2022-08-29T01:54:29.372Z,89.42
2022-08-29T01:55:31.578Z,89.46
2022-08-29T01:56:38.084Z,89.51
2022-08-29T01:57:40.561Z,89.56
2022-08-29T01:58:43.839Z,89.72
2022-08-29T01:59:46.999Z,89.87
2022-08-29T02:00:50.196Z,91.22
2022-08-29T02:02:04.623Z,91.47
2022-08-29T02:03:07.319Z,91.32
2022-08-29T02:04:09.552Z,92.07
2022-08-29T02:05:12.054Z,92.25
2022-08-29T02:06:14.887Z,92.88
2022-08-29T02:07:19.092Z,92.95
2022-08-29T02:08:21.662Z,92.67
2022-08-29T02:09:24.859Z,92.60
2022-08-29T02:10:27.842Z,93.63
2022-08-29T02:11:30.114Z,94.35
2022-08-29T02:12:32.752Z,93.67
2022-08-29T02:13:37.221Z,93.84
2022-08-29T02:14:39.575Z,93.50
2022-08-29T02:15:41.889Z,93.69
2022-08-29T02:16:44.342Z,93.26
2022-08-29T02:17:48.576Z,92.72
2022-08-29T02:18:51.533Z,93.03
2022-08-29T02:19:54.031Z,93.62
2022-08-29T02:20:56.634Z,93.53
2022-08-29T02:22:00.569Z,93.13
2022-08-29T02:23:03.772Z,93.00
2022-08-29T02:24:24.040Z,92.88
2022-08-29T02:25:12.066Z,93.01
2022-08-29T02:26:15.480Z,92.92
2022-08-29T02:27:19.390Z,92.74
2022-08-29T02:28:21.620Z,93.72
2022-08-29T02:29:25.835Z,93.87
2022-08-29T02:30:30.522Z,93.57
2022-08-29T02:31:33.209Z,93.57
2022-08-29T02:32:35.872Z,93.62
2022-08-29T02:33:39.337Z,93.62
2022-08-29T02:34:44.587Z,94.06
2022-08-29T02:35:49.537Z,94.14
2022-08-29T02:36:52.238Z,94.12
2022-08-29T02:37:54.634Z,94.19
2022-08-29T02:38:56.692Z,94.10
2022-08-29T02:39:58.974Z,94.23
2022-08-29T02:41:01.892Z,94.16
2022-08-29T02:42:05.419Z,94.36
2022-08-29T02:43:08.844Z,94.65
2022-08-29T02:44:11.499Z,94.69
2022-08-29T02:45:14.058Z,95.04
2022-08-29T02:46:19.398Z,95.20
2022-08-29T02:47:22.034Z,95.09
2022-08-29T02:48:24.433Z,94.82
2022-08-29T02:49:27.072Z,94.71
2022-08-29T02:50:31.857Z,94.64
2022-08-29T02:51:34.270Z,94.66
2022-08-29T02:52:40.338Z,94.89
2022-08-29T02:53:42.864Z,94.97
2022-08-29T02:54:47.010Z,94.85
2022-08-29T02:55:50.094Z,95.07
2022-08-29T02:56:52.827Z,95.40
2022-08-29T02:57:55.150Z,95.57
2022-08-29T02:58:57.998Z,95.96
2022-08-29T03:00:00.824Z,95.74
2022-08-29T03:01:03.682Z,95.68
2022-08-29T03:02:06.248Z,95.79
2022-08-29T03:03:09.574Z,95.90
2022-08-29T03:04:12.065Z,96.04
2022-08-29T03:05:16.683Z,96.02
2022-08-29T03:06:21.933Z,95.97
2022-08-29T03:07:24.167Z,95.94
2022-08-29T03:08:26.797Z,95.81
2022-08-29T03:09:29.144Z,95.49
2022-08-29T03:10:32.747Z,95.09
2022-08-29T03:11:35.000Z,94.89
2022-08-29T03:12:37.685Z,94.91
2022-08-29T03:13:40.038Z,94.90
2022-08-29T03:14:42.454Z,94.93
2022-08-29T03:15:45.502Z,95.25
2022-08-29T03:16:48.275Z,95.48
2022-08-29T03:17:50.445Z,95.61
2022-08-29T03:18:53.124Z,95.47
2022-08-29T03:19:55.797Z,95.41
2022-08-29T03:20:59.942Z,95.55
2022-08-29T03:22:02.267Z,96.08
2022-08-29T03:23:05.115Z,96.37
2022-08-29T03:24:07.291Z,97.75
2022-08-29T03:25:11.696Z,98.05
2022-08-29T03:26:15.283Z,98.38
2022-08-29T03:27:19.763Z,98.54
2022-08-29T03:28:22.174Z,98.36
2022-08-29T03:29:24.459Z,98.14
2022-08-29T03:30:28.682Z,98.22
2022-08-29T03:31:31.107Z,98.09
2022-08-29T03:32:33.515Z,98.37
2022-08-29T03:33:36.685Z,98.21
2022-08-29T03:34:39.091Z,98.15
2022-08-29T03:35:41.822Z,97.70
2022-08-29T03:36:44.505Z,97.46
2022-08-29T03:37:46.761Z,97.54
2022-08-29T03:38:49.126Z,97.38
2022-08-29T03:39:51.914Z,97.12
2022-08-29T03:40:57.563Z,96.77
2022-08-29T03:41:59.172Z,96.57
2022-08-29T03:43:01.657Z,96.26
2022-08-29T03:44:04.000Z,96.08
2022-08-29T03:45:09.216Z,96.04
2022-08-29T03:46:12.334Z,95.88
2022-08-29T03:47:15.425Z,95.25
2022-08-29T03:48:17.862Z,95.00
2022-08-29T03:49:20.282Z,94.52
2022-08-29T03:50:23.165Z,94.27
2022-08-29T03:51:29.424Z,94.12
2022-08-29T03:52:29.606Z,94.21
2022-08-29T03:53:33.124Z,94.00
2022-08-29T03:54:35.992Z,93.12
2022-08-29T03:55:38.985Z,92.38
2022-08-29T03:56:41.873Z,92.54
2022-08-29T03:57:44.259Z,92.78
2022-08-29T03:58:52.624Z,92.68
2022-08-29T03:59:54.129Z,92.43
2022-08-29T04:00:56.449Z,92.26
2022-08-29T04:01:59.094Z,92.30
2022-08-29T04:03:01.728Z,92.27
2022-08-29T04:04:04.959Z,91.93
2022-08-29T04:05:08.699Z,91.73
2022-08-29T04:06:11.290Z,91.17
2022-08-29T04:07:13.923Z,91.09
2022-08-29T04:08:18.080Z,90.97
2022-08-29T04:09:20.651Z,90.99
2022-08-29T04:10:29.584Z,91.04
2022-08-29T04:11:31.944Z,90.95
2022-08-29T04:12:34.469Z,90.75
2022-08-29T04:13:36.771Z,90.67
2022-08-29T04:14:40.003Z,90.67
2022-08-29T04:15:42.590Z,90.19
2022-08-29T04:16:46.995Z,90.19
2022-08-29T04:17:53.036Z,89.82
2022-08-29T04:18:56.142Z,89.25
2022-08-29T04:19:58.443Z,88.97
2022-08-29T04:21:01.602Z,88.58
2022-08-29T04:22:05.915Z,88.58
2022-08-29T04:23:08.413Z,88.48
2022-08-29T04:24:11.853Z,88.30
2022-08-29T04:25:14.907Z,87.98
2022-08-29T04:26:35.865Z,88.19
2022-08-29T04:27:23.544Z,88.42
2022-08-29T04:28:25.863Z,88.44
2022-08-29T04:29:28.258Z,88.28
2022-08-29T04:30:31.152Z,87.91
2022-08-29T04:31:33.907Z,87.10
2022-08-29T04:32:36.811Z,86.08
2022-08-29T04:33:39.311Z,85.60
2022-08-29T04:34:41.725Z,84.34
2022-08-29T04:35:44.113Z,84.07
2022-08-29T04:36:46.794Z,83.30
2022-08-29T04:37:49.120Z,82.65
2022-08-29T04:38:51.686Z,82.52
2022-08-29T04:39:53.997Z,81.78
2022-08-29T04:40:56.474Z,81.63
2022-08-29T04:41:58.962Z,81.35
2022-08-29T04:43:01.309Z,80.86
2022-08-29T04:44:05.234Z,81.33
2022-08-29T04:45:09.654Z,81.50
2022-08-29T04:46:24.030Z,81.41
2022-08-29T04:47:21.091Z,80.91
2022-08-29T04:48:24.138Z,80.00
2022-08-29T04:49:26.528Z,79.39
2022-08-29T04:50:29.573Z,79.75
2022-08-29T04:51:34.123Z,79.88
2022-08-29T04:52:36.672Z,79.75
2022-08-29T04:53:38.991Z,79.61
2022-08-29T04:54:41.260Z,79.47
2022-08-29T04:55:43.713Z,78.89
2022-08-29T04:56:47.614Z,78.72
2022-08-29T04:57:52.638Z,78.39
2022-08-29T04:58:55.639Z,77.89
2022-08-29T04:59:58.321Z,77.41
2022-08-29T05:01:01.343Z,77.38
2022-08-29T05:02:04.180Z,77.17
2022-08-29T05:03:06.615Z,77.60
2022-08-29T05:04:12.523Z,77.44
2022-08-29T05:05:15.295Z,76.87
2022-08-29T05:06:20.192Z,76.42
2022-08-29T05:07:25.904Z,75.94
2022-08-29T05:08:29.493Z,76.10
2022-08-29T05:09:32.743Z,76.21
2022-08-29T05:10:37.387Z,75.34
2022-08-29T05:11:39.655Z,74.80
2022-08-29T05:12:43.110Z,74.05
2022-08-29T05:13:47.450Z,73.71
2022-08-29T05:14:49.774Z,73.24
2022-08-29T05:15:51.987Z,72.37
2022-08-29T05:16:54.567Z,72.29
2022-08-29T05:17:56.711Z,71.05
2022-08-29T05:18:59.171Z,70.63
2022-08-29T05:20:01.662Z,70.24
2022-08-29T05:21:04.234Z,69.79
2022-08-29T05:22:06.334Z,68.90
2022-08-29T05:23:09.978Z,69.47
2022-08-29T05:24:14.253Z,68.57
2022-08-29T05:25:18.506Z,67.88
2022-08-29T05:26:23.138Z,67.91
2022-08-29T05:27:25.704Z,67.20
2022-08-29T05:28:29.771Z,66.46
2022-08-29T05:29:32.217Z,65.39
2022-08-29T05:31:48.712Z,65.66
2022-08-29T05:32:51.245Z,64.74
2022-08-29T05:33:57.082Z,64.27
2022-08-29T05:34:59.655Z,63.87
2022-08-29T05:36:03.439Z,63.21
2022-08-29T05:37:08.751Z,63.44
2022-08-29T05:38:12.048Z,63.94
2022-08-29T05:39:14.663Z,64.07
2022-08-29T05:40:17.643Z,63.80
2022-08-29T05:41:20.077Z,63.42
2022-08-29T05:42:22.686Z,63.35
2022-08-29T05:43:25.881Z,63.00
2022-08-29T05:44:34.216Z,62.79
2022-08-29T05:45:35.175Z,62.54
2022-08-29T05:46:37.738Z,62.27
2022-08-29T05:47:40.592Z,63.35
2022-08-29T05:48:42.878Z,62.35
2022-08-29T05:49:46.891Z,62.96
2022-08-29T05:50:49.432Z,63.96
2022-08-29T05:51:53.155Z,62.68
2022-08-29T05:52:55.662Z,62.42
2022-08-29T05:53:58.181Z,63.40
2022-08-29T05:55:01.584Z,62.84
2022-08-29T05:56:04.005Z,63.41
2022-08-29T05:57:08.190Z,62.96
2022-08-29T05:58:12.102Z,63.10
2022-08-29T05:59:16.600Z,62.78
2022-08-29T06:00:20.925Z,61.96
2022-08-29T06:01:26.227Z,61.38
2022-08-29T06:02:29.436Z,61.75
2022-08-29T06:03:32.315Z,61.72
2022-08-29T06:04:35.182Z,61.29
2022-08-29T06:05:39.243Z,60.89
2022-08-29T06:06:42.089Z,61.61
2022-08-29T06:07:44.255Z,62.23
2022-08-29T06:08:48.577Z,60.59
2022-08-29T06:09:51.665Z,61.13
2022-08-29T06:10:54.437Z,60.24
2022-08-29T06:11:56.723Z,59.51
2022-08-29T06:13:00.022Z,60.31
2022-08-29T06:14:02.565Z,59.61
2022-08-29T06:15:05.922Z,59.67
2022-08-29T06:16:11.757Z,58.56
2022-08-29T06:17:14.318Z,57.62
2022-08-29T06:18:19.629Z,58.41
2022-08-29T06:19:24.144Z,58.69
2022-08-29T06:20:26.574Z,58.32
2022-08-29T06:21:29.009Z,58.60
2022-08-29T06:22:31.042Z,57.68
2022-08-29T06:23:36.549Z,57.59
2022-08-29T06:24:39.727Z,58.58
2022-08-29T06:25:42.366Z,58.66
2022-08-29T06:26:44.663Z,59.48
2022-08-29T06:27:46.974Z,58.87
2022-08-29T06:28:49.514Z,59.23
2022-08-29T06:29:52.320Z,57.96
2022-08-29T06:30:57.666Z,58.75
2022-08-29T06:32:00.290Z,58.60
2022-08-29T06:33:18.526Z,59.76
2022-08-29T06:34:09.025Z,59.36
2022-08-29T06:35:11.486Z,57.88
2022-08-29T06:36:13.982Z,58.06
2022-08-29T06:37:16.624Z,58.23
2022-08-29T06:38:19.425Z,57.06
2022-08-29T06:39:23.396Z,58.26
2022-08-29T06:40:26.392Z,58.15
2022-08-29T06:41:29.045Z,57.30
2022-08-29T06:42:31.469Z,57.64
2022-08-29T06:43:34.480Z,58.03
2022-08-29T06:44:39.294Z,56.57
2022-08-29T06:45:43.098Z,58.56
2022-08-29T06:46:48.430Z,58.92
2022-08-29T06:47:50.938Z,58.84
2022-08-29T06:48:54.687Z,58.09
2022-08-29T06:49:57.049Z,58.40
2022-08-29T06:51:03.057Z,57.64
2022-08-29T06:52:07.817Z,56.02
2022-08-29T06:53:27.022Z,55.06
2022-08-29T06:54:15.940Z,55.04
2022-08-29T06:55:24.098Z,55.93
2022-08-29T06:56:24.767Z,55.67
2022-08-29T06:57:29.240Z,55.40
2022-08-29T06:58:32.109Z,55.09
2022-08-29T06:59:34.995Z,54.05
2022-08-29T07:00:39.921Z,53.86
2022-08-29T07:01:43.763Z,53.52
2022-08-29T07:02:47.647Z,53.50
2022-08-29T07:03:55.303Z,53.23
2022-08-29T07:05:03.115Z,52.86
2022-08-29T07:06:06.393Z,52.82
2022-08-29T07:07:08.697Z,52.19
2022-08-29T07:08:14.054Z,51.92
2022-08-29T07:09:20.147Z,51.45
2022-08-29T07:10:24.263Z,51.17
2022-08-29T07:11:28.899Z,51.13
2022-08-29T07:12:31.335Z,51.64
2022-08-29T07:13:33.824Z,53.27
2022-08-29T07:14:36.125Z,53.47
2022-08-29T07:15:38.188Z,54.05
2022-08-29T07:16:44.711Z,54.82
2022-08-29T07:17:47.633Z,54.77
2022-08-29T07:18:50.169Z,53.97
2022-08-29T07:19:53.110Z,52.84
2022-08-29T07:20:57.233Z,52.49
2022-08-29T07:21:59.618Z,52.03
2022-08-29T07:23:02.419Z,52.20
2022-08-29T07:24:06.890Z,49.92
2022-08-29T07:25:12.477Z,49.92
2022-08-29T07:26:20.044Z,49.91
2022-08-29T07:27:25.471Z,50.97
2022-08-29T07:28:27.768Z,50.51
2022-08-29T07:29:32.336Z,49.89
2022-08-29T07:30:36.577Z,50.17
2022-08-29T07:31:39.178Z,50.96
2022-08-29T07:32:44.092Z,50.57
2022-08-29T07:33:59.752Z,49.89
2022-08-29T07:34:56.285Z,49.60
2022-08-29T07:36:01.587Z,49.48
2022-08-29T07:37:05.899Z,49.54
2022-08-29T07:38:09.488Z,49.68
2022-08-29T07:39:17.557Z,49.24
2022-08-29T07:40:21.603Z,49.05
2022-08-29T07:41:24.042Z,48.67
2022-08-29T07:42:26.374Z,47.52
2022-08-29T07:43:29.053Z,47.52
2022-08-29T07:44:34.313Z,46.79
2022-08-29T07:47:01.706Z,45.67
2022-08-29T07:48:03.970Z,45.88
2022-08-29T07:49:09.804Z,46.13
2022-08-29T07:50:14.516Z,47.83
2022-08-29T07:51:19.408Z,47.98
2022-08-29T07:52:25.231Z,47.65
2022-08-29T07:53:30.606Z,47.50
2022-08-29T07:54:33.187Z,47.29
2022-08-29T07:55:36.846Z,46.79
2022-08-29T07:56:40.477Z,46.77
2022-08-29T07:57:43.247Z,47.05
2022-08-29T07:58:46.115Z,46.56
2022-08-29T07:59:49.048Z,46.88
2022-08-29T08:00:53.571Z,47.05
2022-08-29T08:01:55.868Z,46.76
2022-08-29T08:02:58.613Z,46.79
2022-08-29T08:04:01.592Z,46.87
2022-08-29T08:05:05.957Z,46.82
2022-08-29T08:06:10.847Z,46.88
2022-08-29T08:07:15.154Z,47.13
2022-08-29T08:08:19.325Z,46.01
2022-08-29T08:09:22.573Z,44.53
2022-08-29T08:10:31.356Z,44.15
2022-08-29T08:11:36.582Z,44.28
2022-08-29T08:12:38.975Z,44.49
2022-08-29T08:13:42.221Z,45.30
2022-08-29T08:14:44.480Z,44.90
2022-08-29T08:15:48.634Z,44.67
2022-08-29T08:16:51.679Z,44.41
2022-08-29T08:17:54.279Z,43.88
2022-08-29T08:18:57.625Z,44.31
2022-08-29T08:19:59.947Z,44.86
2022-08-29T08:21:03.080Z,45.21
2022-08-29T08:22:05.646Z,44.31
2022-08-29T08:23:10.965Z,43.99
2022-08-29T08:24:16.080Z,43.93
2022-08-29T08:25:16.425Z,43.96
2022-08-29T08:26:19.703Z,44.06
2022-08-29T08:27:24.355Z,44.42
2022-08-29T08:28:28.553Z,43.37
2022-08-29T08:29:34.696Z,43.28
2022-08-29T08:30:37.323Z,42.95
2022-08-29T08:31:48.789Z,42.78
2022-08-29T08:32:54.638Z,42.36
2022-08-29T08:33:55.614Z,41.73
2022-08-29T08:34:57.944Z,42.19
2022-08-29T08:36:00.210Z,41.30
2022-08-29T08:37:07.322Z,41.25
2022-08-29T08:38:11.543Z,41.09
2022-08-29T08:39:17.542Z,41.07
2022-08-29T08:40:31.217Z,40.99
2022-08-29T08:42:50.663Z,41.71
2022-08-29T08:43:59.517Z,41.97
2022-08-29T08:45:14.156Z,41.85
2022-08-29T08:46:21.066Z,42.47
2022-08-29T08:47:27.444Z,42.24
2022-08-29T08:48:33.344Z,42.47
2022-08-29T08:49:42.187Z,42.38
2022-08-29T08:51:03.337Z,42.70
2022-08-29T08:52:09.102Z,42.68
2022-08-29T08:53:21.126Z,42.74
2022-08-29T08:54:27.355Z,42.20
2022-08-29T08:55:42.220Z,42.53
2022-08-29T08:56:47.398Z,42.59
2022-08-29T08:57:56.160Z,41.96
2022-08-29T08:59:10.771Z,42.41
2022-08-29T09:00:13.880Z,42.17
2022-08-29T09:01:22.518Z,41.81
2022-08-29T09:02:55.934Z,41.87
2022-08-29T09:04:18.788Z,41.39
2022-08-29T09:05:39.928Z,41.31
2022-08-29T09:07:03.141Z,40.62
2022-08-29T09:08:15.260Z,40.35
2022-08-29T09:09:29.850Z,39.98
2022-08-29T09:10:59.136Z,39.81
2022-08-29T09:12:14.033Z,40.17
2022-08-29T09:13:39.159Z,40.74
2022-08-29T09:15:02.236Z,41.00
2022-08-29T09:17:36.414Z,41.18
2022-08-29T09:18:41.072Z,40.67
2022-08-29T09:19:44.383Z,40.69
2022-08-29T09:20:47.083Z,40.72
2022-08-29T09:21:52.895Z,40.99
2022-08-29T09:22:59.192Z,40.75
2022-08-29T09:24:05.188Z,41.21
2022-08-29T09:25:09.813Z,40.85
2022-08-29T09:26:18.707Z,41.13
2022-08-29T09:27:24.968Z,41.07
2022-08-29T09:28:30.038Z,40.98
2022-08-29T09:29:33.428Z,41.08
2022-08-29T09:30:38.695Z,40.95
2022-08-29T09:31:41.358Z,40.41
2022-08-29T09:32:56.435Z,40.69
2022-08-29T09:34:01.977Z,40.50
2022-08-29T09:35:09.522Z,40.68
2022-08-29T09:36:17.233Z,40.47
2022-08-29T09:37:29.080Z,40.63
2022-08-29T09:38:31.616Z,40.87
2022-08-29T09:39:33.952Z,40.60
2022-08-29T09:40:55.403Z,40.51
2022-08-29T09:42:13.200Z,40.31
2022-08-29T09:43:18.698Z,40.54
2022-08-29T09:44:27.578Z,40.51
2022-08-29T09:45:33.571Z,40.26
2022-08-29T09:46:36.452Z,40.10
2022-08-29T09:47:38.710Z,39.74
2022-08-29T09:48:44.475Z,39.74
2022-08-29T09:50:11.664Z,39.50
2022-08-29T09:51:23.757Z,39.63
2022-08-29T09:52:26.234Z,39.59
2022-08-29T09:53:29.031Z,39.29
2022-08-29T09:54:31.770Z,38.82
2022-08-29T09:55:37.840Z,39.24
2022-08-29T09:56:47.056Z,38.93
2022-08-29T09:57:55.614Z,39.10
2022-08-29T09:59:04.384Z,39.30
2022-08-29T10:00:16.930Z,39.05
2022-08-29T10:01:25.599Z,38.95
2022-08-29T10:02:31.516Z,38.71
2022-08-29T10:03:38.113Z,38.62
2022-08-29T10:04:43.502Z,38.20
2022-08-29T10:05:46.096Z,38.25
2022-08-29T10:06:52.689Z,38.09
2022-08-29T10:07:53.678Z,38.15
2022-08-29T10:09:08.579Z,38.07
2022-08-29T10:10:17.430Z,37.89
2022-08-29T10:11:23.362Z,37.56
2022-08-29T10:12:35.019Z,38.20
2022-08-29T10:13:49.845Z,38.20
2022-08-29T10:14:55.789Z,37.93
2022-08-29T10:16:10.908Z,37.92
2022-08-29T10:17:37.144Z,37.80
2022-08-29T10:18:52.041Z,37.81
2022-08-29T10:19:54.677Z,38.22
2022-08-29T10:21:12.665Z,38.16
2022-08-29T10:22:18.899Z,37.88
2022-08-29T10:23:33.719Z,37.96
2022-08-29T10:24:57.342Z,37.81
2022-08-29T10:26:03.234Z,37.72
2022-08-29T10:27:33.721Z,37.87
2022-08-29T10:28:51.519Z,38.12
2022-08-29T10:30:15.845Z,37.81
2022-08-29T10:31:27.831Z,37.33
2022-08-29T10:32:53.641Z,37.84
2022-08-29T10:34:11.037Z,37.63
2022-08-29T10:35:25.721Z,37.70
2022-08-29T10:36:34.997Z,37.46
2022-08-29T10:38:00.892Z,37.40
2022-08-29T10:39:24.496Z,37.17
2022-08-29T10:40:32.523Z,37.25
2022-08-29T10:41:59.767Z,36.94
2022-08-29T10:43:14.882Z,37.57
2022-08-29T10:44:37.635Z,36.92
2022-08-29T10:46:04.826Z,36.56
2022-08-29T10:47:19.770Z,36.97
2022-08-29T10:48:40.715Z,36.57
2022-08-29T10:50:27.599Z,36.68
2022-08-29T10:51:26.397Z,36.46
2022-08-29T10:53:02.465Z,37.11
2022-08-29T10:54:14.257Z,36.35
2022-08-29T10:55:37.853Z,35.20
2022-08-29T10:56:43.587Z,35.93
2022-08-29T10:58:18.928Z,35.48
2022-08-29T10:59:51.050Z,34.87
2022-08-29T11:00:57.060Z,34.70
2022-08-29T11:02:14.972Z,34.72
2022-08-29T11:03:30.452Z,35.27
2022-08-29T11:04:36.453Z,35.57
2022-08-29T11:05:42.294Z,34.52
2022-08-29T11:07:03.362Z,34.49
2022-08-29T11:09:31.594Z,34.16
2022-08-29T11:10:37.687Z,34.48
2022-08-29T11:11:43.520Z,34.39
2022-08-29T11:12:52.020Z,33.69
2022-08-29T11:14:00.260Z,34.91
2022-08-29T11:15:09.376Z,34.60
2022-08-29T11:17:44.851Z,34.38
2022-08-29T11:18:56.660Z,35.01
2022-08-29T11:20:26.125Z,33.92
2022-08-29T11:21:50.332Z,33.95
2022-08-29T11:23:05.576Z,33.62
2022-08-29T11:24:11.500Z,34.26
2022-08-29T11:25:17.166Z,33.27
2022-08-29T11:26:23.495Z,32.82
2022-08-29T11:27:32.113Z,32.29
2022-08-29T11:28:41.047Z,32.86
2022-08-29T11:29:55.984Z,33.14
2022-08-29T11:31:14.167Z,32.17
2022-08-29T11:32:29.278Z,31.90
2022-08-29T11:33:54.438Z,31.83
2022-08-29T11:35:12.287Z,32.12
2022-08-29T11:36:41.180Z,31.54
2022-08-29T11:38:14.825Z,32.33
2022-08-29T11:39:42.538Z,32.55
2022-08-29T11:42:49.979Z,33.65
2022-08-29T11:43:24.655Z,34.10
2022-08-29T11:44:33.222Z,33.27
2022-08-29T11:45:38.610Z,33.54
2022-08-29T11:46:44.622Z,33.52
2022-08-29T11:48:04.345Z,33.13
2022-08-29T11:49:26.143Z,33.22
2022-08-29T11:50:33.203Z,33.00
2022-08-29T11:51:40.752Z,33.61
2022-08-29T11:53:07.593Z,33.87
2022-08-29T11:54:31.600Z,33.84
2022-08-29T11:55:37.335Z,34.44
2022-08-29T11:56:39.725Z,34.28
2022-08-29T11:57:48.583Z,34.46
2022-08-29T11:58:56.852Z,34.38
2022-08-29T11:59:59.822Z,34.51
2022-08-29T12:01:02.137Z,34.65
2022-08-29T12:02:04.587Z,34.78
2022-08-29T12:03:15.129Z,34.74
2022-08-29T12:04:18.381Z,34.92
2022-08-29T12:05:30.520Z,35.17
2022-08-29T12:06:42.572Z,35.33
2022-08-29T12:07:51.243Z,35.15
2022-08-29T12:09:13.301Z,35.10
2022-08-29T12:10:23.596Z,35.00
2022-08-29T12:12:05.118Z,34.74
2022-08-29T12:13:07.639Z,34.30
2022-08-29T12:14:13.937Z,34.37
2022-08-29T12:15:28.783Z,34.76
2022-08-29T12:16:46.543Z,34.94
2022-08-29T12:18:02.055Z,34.76
2022-08-29T12:18:56.062Z,34.81
2022-08-29T12:20:02.012Z,34.83
2022-08-29T12:21:25.222Z,34.93
2022-08-29T12:22:55.526Z,34.70
2022-08-29T12:23:57.905Z,34.45
2022-08-29T12:26:42.285Z,34.81
2022-08-29T12:27:57.263Z,35.08
2022-08-29T12:29:01.064Z,34.69
2022-08-29T12:30:06.744Z,35.20
2022-08-29T12:31:12.637Z,35.16
2022-08-29T12:32:31.097Z,35.55
2022-08-29T12:33:58.991Z,35.46
2022-08-29T12:35:21.497Z,35.53
2022-08-29T12:36:40.680Z,35.40
2022-08-29T12:37:54.513Z,35.33
2022-08-29T12:39:32.564Z,35.57
2022-08-29T12:40:50.746Z,35.17
2022-08-29T12:42:11.851Z,35.31
2022-08-29T12:43:23.740Z,35.34
2022-08-29T12:44:29.788Z,35.37
2022-08-29T12:45:35.663Z,35.29
2022-08-29T12:46:40.800Z,35.49
2022-08-29T12:47:49.780Z,35.72
2022-08-29T12:49:02.387Z,35.22
2022-08-29T12:50:08.540Z,35.58
2022-08-29T12:51:14.569Z,36.01
2022-08-29T12:52:23.320Z,35.84
2022-08-29T12:53:31.696Z,35.83
2022-08-29T12:54:37.465Z,35.84
2022-08-29T12:55:43.558Z,35.54
2022-08-29T12:56:49.357Z,35.90
2022-08-29T12:57:52.913Z,35.98
2022-08-29T12:58:58.765Z,36.43
2022-08-29T13:00:04.647Z,36.47
2022-08-29T13:01:10.635Z,36.41
2022-08-29T13:02:28.890Z,36.43
2022-08-29T13:03:31.867Z,36.41
2022-08-29T13:04:34.253Z,36.16
2022-08-29T13:05:38.908Z,36.42
2022-08-29T13:06:56.566Z,36.59
2022-08-29T13:08:22.214Z,36.46
2022-08-29T13:09:36.466Z,36.24
2022-08-29T13:10:43.150Z,36.51
2022-08-29T13:11:45.563Z,36.20
2022-08-29T13:12:48.004Z,36.39
2022-08-29T13:13:50.435Z,36.69
2022-08-29T13:16:26.851Z,36.73
2022-08-29T13:17:38.853Z,36.89
2022-08-29T13:19:00.207Z,36.62
2022-08-29T13:20:23.706Z,36.59
2022-08-29T13:21:29.997Z,36.75
2022-08-29T13:22:32.318Z,36.60
2022-08-29T13:23:40.862Z,36.60
2022-08-29T13:24:43.267Z,36.79
2022-08-29T13:26:12.872Z,36.89
2022-08-29T13:27:19.047Z,36.91
2022-08-29T13:28:46.228Z,36.70
2022-08-29T13:29:48.788Z,36.86
2022-08-29T13:31:17.885Z,36.87
2022-08-29T13:32:25.511Z,37.00
2022-08-29T13:33:35.194Z,36.67
2022-08-29T13:34:32.537Z,36.95
2022-08-29T13:35:36.949Z,36.93
2022-08-29T13:36:55.110Z,37.16
2022-08-29T13:38:19.251Z,37.24
2022-08-29T13:39:25.279Z,37.50
2022-08-29T13:40:37.806Z,37.50
2022-08-29T13:41:45.733Z,37.50
2022-08-29T13:42:48.700Z,37.63
2022-08-29T13:43:51.052Z,37.77
2022-08-29T13:46:19.595Z,38.35
2022-08-29T13:47:25.687Z,38.48
2022-08-29T13:48:28.326Z,38.08
2022-08-29T13:49:33.400Z,38.58
2022-08-29T13:50:36.165Z,38.33
2022-08-29T13:51:41.809Z,38.49
2022-08-29T13:52:48.883Z,38.48
2022-08-29T13:53:54.848Z,38.54
2022-08-29T13:54:57.392Z,38.61
2022-08-29T13:56:01.371Z,38.78
2022-08-29T13:57:07.364Z,38.56
2022-08-29T13:58:11.728Z,38.62
2022-08-29T13:59:20.609Z,38.81
2022-08-29T14:00:32.157Z,38.91
2022-08-29T14:01:30.521Z,38.86
2022-08-29T14:02:34.313Z,38.98
2022-08-29T14:03:36.899Z,39.09
2022-08-29T14:04:41.406Z,38.93
2022-08-29T14:05:44.445Z,39.01
2022-08-29T14:06:47.524Z,39.05
2022-08-29T14:07:50.134Z,39.10
2022-08-29T14:08:53.061Z,39.04
2022-08-29T14:09:55.515Z,39.46
2022-08-29T14:10:57.923Z,39.23
2022-08-29T14:12:00.902Z,39.25
2022-08-29T14:13:04.431Z,39.32
2022-08-29T14:14:07.489Z,39.48
2022-08-29T14:15:12.329Z,39.63
2022-08-29T14:16:15.390Z,41.24
2022-08-29T14:17:19.002Z,41.96
2022-08-29T14:18:21.530Z,42.07
2022-08-29T14:19:24.609Z,42.66
2022-08-29T14:20:28.156Z,42.73
2022-08-29T14:21:31.076Z,43.40
2022-08-29T14:22:33.416Z,43.31
2022-08-29T14:23:36.172Z,43.47
2022-08-29T14:24:38.443Z,43.75
2022-08-29T14:25:40.644Z,43.67
2022-08-29T14:26:43.297Z,44.07
2022-08-29T14:27:46.751Z,44.01
2022-08-29T14:28:49.246Z,44.34
2022-08-29T14:29:51.709Z,43.82
2022-08-29T14:30:54.218Z,43.98
2022-08-29T14:31:58.779Z,43.76
2022-08-29T14:33:01.691Z,43.49